LFLX 210400Z AUTO 03011KT 9999 OVC007 01/00 Q1034 TEMPO BKN003

ElémentsDécodage
LFLX Station météo située sur l'aérodrome de CHATEAUROUX Déols
210400Z émis le 21 du mois à 04h00 UTC
AUTO Bulletin édité par un automate
03011KT vent du 030°, 11 noeuds
9999 visibilité horizontale supérieure à 10 Km
OVC007 couverture nuageuse totale (8/8) à 700 pieds
01/00 température 01°C, point de rosée 00°C
 soit une humidité relative de 93%
Q1034 la pression au niveau de la mer (QNH) est de 1034 hPa
TEMPO fluctuation temporaire prévue
BKN003 nuages morcelés (5/8 à 7/8) à 300 pieds